Time;durP1;ratioP1;P1;durP2;ratioP2;P2;SDS_P1;SDS_P2;PMS_P1;PMS_P2;Temp;Humidity;BMP_temperature;BMP_pressure;BME280_temperature;BME280_humidity;BME280_pressure;Samples;Min_cycle;Max_cycle;Signal;HPM_P1;HPM_P2
2021/06/18 00:01:25;;;;;;;9.20;5.30;;;;;;;22.53;72.90;101111.41;6246874;28;20076;-76
2021/06/18 00:04:26;;;;;;;8.40;5.43;;;;;;;22.51;72.74;101110.69;6245751;28;20045;-76
2021/06/18 00:07:29;;;;;;;8.32;5.40;;;;;;;22.38;73.55;101121.75;6246828;28;20413;-76
2021/06/18 00:10:30;;;;;;;10.95;5.75;;;;;;;22.47;73.15;101122.69;6246682;28;20056;-76
2021/06/18 00:13:32;;;;;;;10.73;5.70;;;;;;;22.18;74.49;101114.81;6246544;28;20083;-77
2021/06/18 00:16:34;;;;;;;12.07;5.60;;;;;;;22.24;74.87;101107.03;6246774;28;20061;-77
2021/06/18 00:19:35;;;;;;;13.13;5.90;;;;;;;22.48;73.31;101109.16;6246814;28;20065;-76
2021/06/18 00:22:39;;;;;;;13.75;5.63;;;;;;;22.26;73.79;101106.91;6246380;28;20176;-76
2021/06/18 00:25:42;;;;;;;12.60;5.32;;;;;;;22.22;74.15;101106.34;6246550;28;20056;-75
2021/06/18 00:28:44;;;;;;;12.18;5.85;;;;;;;22.33;74.26;101115.16;6246731;28;20511;-76
2021/06/18 00:31:45;;;;;;;10.85;5.60;;;;;;;22.28;74.50;101112.94;6246181;28;20485;-77
2021/06/18 00:34:47;;;;;;;18.10;5.50;;;;;;;22.16;74.73;101114.09;6246579;28;20050;-76
2021/06/18 00:37:50;;;;;;;13.23;5.72;;;;;;;22.13;74.92;101112.59;6246560;28;20057;-76
2021/06/18 00:40:51;;;;;;;10.73;5.78;;;;;;;22.22;74.88;101109.03;6246573;28;20056;-76
2021/06/18 00:43:53;;;;;;;14.85;5.93;;;;;;;22.03;75.92;101109.94;6246140;28;20045;-75
2021/06/18 00:46:55;;;;;;;13.07;6.25;;;;;;;22.01;76.06;101111.91;6246294;28;20080;-77
2021/06/18 00:49:57;;;;;;;12.57;6.00;;;;;;;22.01;76.71;101103.88;6246149;28;20052;-76
2021/06/18 00:52:59;;;;;;;11.48;5.28;;;;;;;22.02;76.52;101102.88;6244913;28;20061;-76
2021/06/18 00:56:01;;;;;;;11.20;6.30;;;;;;;22.14;75.67;101100.88;6245954;28;20052;-76
2021/06/18 00:59:02;;;;;;;11.30;6.68;;;;;;;22.21;75.50;101091.28;6246207;28;20082;-76
2021/06/18 01:02:04;;;;;;;11.10;6.28;;;;;;;21.93;76.54;101093.03;6246137;28;20060;-77
2021/06/18 01:05:08;;;;;;;17.63;6.70;;;;;;;21.87;76.87;101099.00;6245906;28;20650;-75
2021/06/18 01:08:17;;;;;;;9.20;5.75;;;;;;;21.68;78.40;101097.22;6246099;28;20041;-76
2021/06/18 01:11:29;;;;;;;11.97;5.57;;;;;;;21.67;79.19;101100.91;6245927;28;20052;-76
2021/06/18 01:14:41;;;;;;;14.50;5.85;;;;;;;21.65;79.32;101086.81;6247468;28;20073;-76
2021/06/18 01:17:49;;;;;;;10.75;6.18;;;;;;;21.59;80.08;101087.41;6250246;28;20072;-76
2021/06/18 01:21:18;;;;;;;15.15;5.82;;;;;;;21.64;79.98;101081.63;6250415;28;20053;-76
2021/06/18 01:24:32;;;;;;;9.20;5.45;;;;;;;21.66;79.88;101091.16;6239574;28;20433;-76
2021/06/18 01:27:43;;;;;;;7.80;6.25;;;;;;;21.75;78.88;101087.63;6250318;28;20049;-76
2021/06/18 01:30:48;;;;;;;16.60;6.53;;;;;;;21.54;79.96;101073.63;6250086;28;20069;-76
2021/06/18 01:33:56;;;;;;;11.48;6.20;;;;;;;21.55;80.17;101086.00;6249480;28;20397;-77
2021/06/18 01:37:02;;;;;;;9.98;5.88;;;;;;;21.56;80.53;101079.66;6249831;28;20049;-76
2021/06/18 01:40:09;;;;;;;12.73;6.90;;;;;;;21.46;80.77;101081.53;6250026;28;20521;-76
2021/06/18 01:43:14;;;;;;;12.48;7.28;;;;;;;21.39;81.19;101077.72;6249746;28;20045;-76
2021/06/18 01:46:20;;;;;;;16.42;7.20;;;;;;;21.37;82.51;101077.88;6249787;28;20507;-76
2021/06/18 01:49:23;;;;;;;10.30;6.78;;;;;;;21.42;82.06;101075.59;6249504;28;20052;-76
2021/06/18 01:52:25;;;;;;;12.05;7.43;;;;;;;21.43;81.77;101074.63;6249517;28;20511;-76
2021/06/18 01:55:29;;;;;;;11.50;6.82;;;;;;;21.35;82.31;101066.50;6249403;28;20052;-76
2021/06/18 01:58:32;;;;;;;11.43;6.10;;;;;;;21.35;82.84;101061.16;6249560;28;20046;-76
2021/06/18 02:01:39;;;;;;;9.40;6.88;;;;;;;21.39;82.89;101056.34;6249428;28;20060;-76
2021/06/18 02:04:42;;;;;;;16.48;7.60;;;;;;;21.20;83.74;101050.00;6249352;28;20417;-77
2021/06/18 02:07:45;;;;;;;15.43;7.40;;;;;;;21.18;84.15;101059.16;6249206;28;20060;-76
2021/06/18 02:10:48;;;;;;;14.02;7.95;;;;;;;21.19;83.89;101048.31;6249293;28;20053;-76
2021/06/18 02:13:50;;;;;;;15.80;8.15;;;;;;;21.15;84.31;101062.97;6249076;28;20056;-75
2021/06/18 02:16:56;;;;;;;12.45;7.25;;;;;;;21.10;84.33;101051.84;6249148;28;20520;-77
2021/06/18 02:19:59;;;;;;;10.55;6.25;;;;;;;21.17;84.65;101054.81;6248544;28;20504;-76
2021/06/18 02:23:01;;;;;;;11.55;6.70;;;;;;;21.11;84.76;101058.88;6248469;28;20496;-76
2021/06/18 02:26:05;;;;;;;12.52;6.88;;;;;;;20.91;85.73;101058.06;6248066;28;20045;-75
2021/06/18 02:29:07;;;;;;;9.73;6.78;;;;;;;20.89;86.19;101048.47;6248583;28;20057;-76
2021/06/18 02:32:12;;;;;;;15.05;7.80;;;;;;;20.89;86.75;101049.34;6248508;28;20536;-76
2021/06/18 02:35:14;;;;;;;11.90;7.65;;;;;;;20.94;86.70;101046.25;6248349;28;20049;-76
2021/06/18 02:38:16;;;;;;;14.40;8.35;;;;;;;20.96;86.72;101050.47;6248554;28;20056;-77
2021/06/18 02:41:17;;;;;;;13.77;8.23;;;;;;;20.99;86.62;101052.84;6248534;28;20057;-76
2021/06/18 02:44:19;;;;;;;17.08;7.97;;;;;;;20.94;86.79;101052.44;6248130;28;20041;-76
2021/06/18 02:47:29;;;;;;;14.32;9.63;;;;;;;21.00;86.18;101043.84;6248133;28;20053;-76
2021/06/18 02:50:38;;;;;;;12.55;9.50;;;;;;;20.79;86.87;101045.81;6248430;28;20060;-76
2021/06/18 02:53:45;;;;;;;15.68;8.73;;;;;;;20.78;88.22;101042.31;6247884;28;20057;-75
2021/06/18 02:56:49;;;;;;;19.25;10.25;;;;;;;20.85;88.01;101047.06;6248399;28;20050;-76
2021/06/18 03:00:00;;;;;;;14.63;9.25;;;;;;;20.84;87.73;101040.91;6247804;28;20057;-76
2021/06/18 03:03:04;;;;;;;18.27;9.85;;;;;;;20.88;87.69;101044.97;6247529;28;20061;-76
2021/06/18 03:06:07;;;;;;;16.52;10.40;;;;;;;20.85;87.35;101047.06;6247840;28;20052;-76
2021/06/18 03:09:10;;;;;;;17.38;10.00;;;;;;;20.71;87.73;101040.31;6247773;28;20053;-76
2021/06/18 03:12:12;;;;;;;15.05;10.50;;;;;;;20.69;88.43;101039.63;6247476;28;20049;-76
2021/06/18 03:15:15;;;;;;;19.70;12.07;;;;;;;20.58;89.11;101031.78;6247740;28;20049;-76
2021/06/18 03:18:21;;;;;;;20.40;11.43;;;;;;;20.48;90.89;101035.28;6247604;28;20052;-76
2021/06/18 03:21:25;;;;;;;19.65;11.80;;;;;;;20.52;91.01;101038.50;6247725;28;20045;-76
2021/06/18 03:24:28;;;;;;;18.23;11.05;;;;;;;20.62;90.95;101038.50;6247285;28;20052;-76
2021/06/18 03:27:32;;;;;;;14.85;10.95;;;;;;;20.54;90.76;101036.53;6247410;28;20093;-75
2021/06/18 03:30:35;;;;;;;23.30;11.95;;;;;;;20.44;91.25;101041.84;6247420;28;20424;-75
2021/06/18 03:33:40;;;;;;;23.45;11.70;;;;;;;20.47;91.97;101040.72;6246992;28;20046;-76
2021/06/18 03:36:43;;;;;;;15.63;10.75;;;;;;;20.43;92.56;101050.81;6247136;28;20053;-77
2021/06/18 03:39:45;;;;;;;18.17;11.07;;;;;;;20.46;92.60;101049.72;6247150;28;20413;-77
2021/06/18 03:42:48;;;;;;;17.67;11.93;;;;;;;20.47;92.72;101056.72;6247103;28;20052;-77
2021/06/18 03:45:56;;;;;;;18.95;12.90;;;;;;;20.50;93.24;101064.50;6247023;28;20072;-77
2021/06/18 03:49:00;;;;;;;17.25;10.90;;;;;;;20.57;92.77;101062.13;6246837;28;20048;-77
2021/06/18 03:52:02;;;;;;;22.33;13.07;;;;;;;20.50;92.37;101062.69;6246802;28;20511;-77
2021/06/18 03:55:05;;;;;;;18.58;12.50;;;;;;;20.35;93.04;101064.03;6246998;28;20041;-76
2021/06/18 03:58:08;;;;;;;22.67;14.70;;;;;;;20.31;93.57;101067.13;6246773;28;20444;-76
2021/06/18 04:01:11;;;;;;;19.15;13.13;;;;;;;20.26;95.05;101073.72;6246977;28;20060;-77
2021/06/18 04:04:14;;;;;;;22.27;13.50;;;;;;;20.37;95.33;101078.06;6246578;28;20046;-77
2021/06/18 04:07:15;;;;;;;18.88;13.10;;;;;;;20.38;94.23;101077.09;6246642;28;20046;-76
2021/06/18 04:10:18;;;;;;;16.23;11.77;;;;;;;20.38;94.00;101084.25;6246648;28;20045;-76
2021/06/18 04:13:20;;;;;;;26.35;13.18;;;;;;;20.37;95.00;101072.72;6246297;28;20053;-77
2021/06/18 04:16:22;;;;;;;26.30;14.77;;;;;;;20.41;93.57;101070.63;6246857;28;20053;-76
2021/06/18 04:19:25;;;;;;;23.27;13.63;;;;;;;20.46;93.79;101069.25;6246490;28;20076;-76
2021/06/18 04:22:31;;;;;;;21.60;15.00;;;;;;;20.45;94.59;101069.38;6246534;28;20046;-76
2021/06/18 04:25:33;;;;;;;22.23;14.45;;;;;;;20.50;94.83;101073.34;6246508;28;20046;-77
2021/06/18 04:28:35;;;;;;;25.77;14.65;;;;;;;20.59;94.66;101074.34;6246629;28;20052;-76
2021/06/18 04:31:37;;;;;;;27.30;15.38;;;;;;;20.52;94.03;101062.53;6246200;28;20045;-76
2021/06/18 04:34:40;;;;;;;25.75;15.90;;;;;;;20.49;94.27;101069.00;6246347;28;20053;-77
2021/06/18 04:37:42;;;;;;;23.38;15.10;;;;;;;20.52;93.95;101079.38;6246588;28;20065;-76
2021/06/18 04:40:44;;;;;;;21.35;14.57;;;;;;;20.62;92.88;101082.09;6246662;28;20045;-77
2021/06/18 04:43:45;;;;;;;21.50;13.70;;;;;;;20.62;93.27;101078.56;6246287;28;20132;-77
2021/06/18 04:46:46;;;;;;;17.70;13.30;;;;;;;20.56;93.25;101071.13;6246186;28;20523;-77
2021/06/18 04:49:49;;;;;;;23.55;12.63;;;;;;;20.55;94.53;101066.75;6248743;28;20274;-77
2021/06/18 04:52:51;;;;;;;16.33;11.25;;;;;;;20.72;94.42;101076.75;6250826;28;20052;-77
2021/06/18 04:55:53;;;;;;;23.98;15.05;;;;;;;20.71;92.40;101088.41;6250821;28;20060;-77
2021/06/18 04:58:58;;;;;;;24.88;13.98;;;;;;;20.60;93.35;101091.22;6250771;28;20045;-77
2021/06/18 05:01:59;;;;;;;21.38;13.82;;;;;;;20.67;93.69;101095.03;6250832;28;20052;-77
2021/06/18 05:05:02;;;;;;;22.95;15.95;;;;;;;20.80;92.22;101098.25;6250654;28;20045;-77
2021/06/18 05:08:04;;;;;;;28.58;16.08;;;;;;;20.96;92.82;101103.91;6250835;28;20053;-77
2021/06/18 05:11:05;;;;;;;23.50;15.43;;;;;;;20.74;93.80;101099.66;6250441;28;20060;-77
2021/06/18 05:14:07;;;;;;;22.00;14.65;;;;;;;20.68;95.23;101100.22;6250409;28;20064;-77
2021/06/18 05:17:08;;;;;;;24.05;16.55;;;;;;;20.92;93.08;101099.81;6250431;28;20057;-77
2021/06/18 05:20:12;;;;;;;21.95;15.10;;;;;;;20.70;94.86;101097.41;6250554;28;20053;-76
2021/06/18 05:23:14;;;;;;;20.23;14.30;;;;;;;20.65;94.83;101100.50;6250151;28;20057;-76
2021/06/18 05:26:15;;;;;;;26.48;16.88;;;;;;;20.68;94.75;101097.56;6250081;28;20046;-77
2021/06/18 05:29:16;;;;;;;27.95;17.63;;;;;;;20.68;94.83;101097.56;6250191;28;20419;-76
2021/06/18 05:32:18;;;;;;;25.02;16.40;;;;;;;20.76;95.18;101094.22;6249765;28;20049;-76
2021/06/18 05:35:21;;;;;;;24.98;16.83;;;;;;;20.74;96.37;101093.47;6249990;28;20511;-76
2021/06/18 05:38:22;;;;;;;21.60;14.88;;;;;;;20.78;96.03;101084.22;6249790;28;20042;-76
2021/06/18 05:41:24;;;;;;;29.05;16.33;;;;;;;20.83;96.04;101091.81;6250150;28;20045;-76
2021/06/18 05:44:25;;;;;;;26.10;14.18;;;;;;;20.90;95.52;101085.78;6249417;28;20393;-76
2021/06/18 05:47:27;;;;;;;23.63;16.02;;;;;;;20.99;94.98;101092.94;6249803;28;20045;-76
2021/06/18 05:50:30;;;;;;;21.95;15.40;;;;;;;21.05;93.10;101078.16;6249664;28;20060;-76
2021/06/18 05:53:32;;;;;;;24.23;14.55;;;;;;;21.02;93.12;101073.94;6249598;28;20049;-76
2021/06/18 05:56:33;;;;;;;20.77;14.82;;;;;;;21.01;93.28;101080.28;6249600;28;20049;-76
2021/06/18 05:59:34;;;;;;;21.33;14.57;;;;;;;21.03;93.92;101083.66;6249261;28;20057;-76
2021/06/18 06:02:36;;;;;;;18.50;13.95;;;;;;;21.12;94.10;101091.78;6248001;28;20126;-76
2021/06/18 06:05:39;;;;;;;19.15;13.02;;;;;;;21.10;93.70;101089.28;6249138;28;20072;-76
2021/06/18 06:08:41;;;;;;;31.00;15.25;;;;;;;21.07;94.44;101094.06;6249369;28;20508;-77
2021/06/18 06:11:43;;;;;;;20.60;13.57;;;;;;;21.18;93.79;101078.72;6249282;28;20118;-76
2021/06/18 06:14:44;;;;;;;18.33;11.73;;;;;;;21.23;94.05;101081.81;6249010;28;20052;-77
2021/06/18 06:17:45;;;;;;;18.90;14.07;;;;;;;21.32;93.12;101077.47;6248921;28;20053;-76
2021/06/18 06:20:49;;;;;;;17.05;11.77;;;;;;;21.37;94.10;101085.06;6249207;28;20528;-77
2021/06/18 06:23:52;;;;;;;16.75;12.63;;;;;;;21.36;95.01;101078.03;6248637;28;20512;-76
2021/06/18 06:26:53;;;;;;;19.67;12.80;;;;;;;21.42;94.31;101088.97;6249005;28;20046;-76
2021/06/18 06:29:54;;;;;;;21.58;13.35;;;;;;;21.54;92.67;101095.03;6248647;28;20052;-77
2021/06/18 06:32:56;;;;;;;24.35;11.27;;;;;;;21.48;93.78;101093.78;6248234;28;20076;-77
2021/06/18 06:35:59;;;;;;;19.38;12.13;;;;;;;21.48;94.69;101112.50;6248544;28;20050;-77
2021/06/18 06:39:02;;;;;;;16.23;11.57;;;;;;;21.48;95.82;101109.81;6248426;28;20053;-77
2021/06/18 06:42:04;;;;;;;16.33;12.38;;;;;;;21.51;96.06;101109.50;6248463;28;20056;-77
2021/06/18 06:45:07;;;;;;;18.58;10.77;;;;;;;21.52;95.93;101105.84;6247973;28;20128;-76
2021/06/18 06:48:08;;;;;;;19.13;10.38;;;;;;;21.67;96.43;101108.09;6248274;28;20057;-76
2021/06/18 06:51:11;;;;;;;19.33;12.32;;;;;;;21.67;95.70;101110.75;6248105;28;20056;-77
2021/06/18 06:54:12;;;;;;;18.23;12.00;;;;;;;21.85;91.86;101122.41;6246916;28;20046;-77
2021/06/18 06:57:16;;;;;;;20.92;12.90;;;;;;;21.94;91.37;101124.19;6247469;28;20532;-77
2021/06/18 07:00:18;;;;;;;21.75;13.93;;;;;;;22.08;88.43;101114.00;6246373;28;20053;-77
2021/06/18 07:03:19;;;;;;;23.23;15.15;;;;;;;22.16;90.22;101124.81;6246427;28;20042;-76
2021/06/18 07:06:22;;;;;;;24.05;14.43;;;;;;;22.42;90.34;101122.31;6247557;28;20056;-77
2021/06/18 07:09:24;;;;;;;22.98;14.02;;;;;;;22.40;90.64;101124.31;6247064;28;20416;-76
2021/06/18 07:12:25;;;;;;;22.70;15.63;;;;;;;22.52;89.45;101121.25;6245990;28;20072;-76
2021/06/18 07:15:26;;;;;;;24.60;16.08;;;;;;;22.42;89.63;101125.81;6247718;28;20041;-78
2021/06/18 07:18:28;;;;;;;29.80;15.02;;;;;;;22.48;90.43;101119.00;6247775;28;20049;-77
2021/06/18 07:21:31;;;;;;;21.30;13.10;;;;;;;22.54;90.40;101116.59;6247490;28;20132;-77
2021/06/18 07:24:32;;;;;;;25.65;14.70;;;;;;;22.59;88.42;101110.78;6246500;28;20045;-80
2021/06/18 07:27:34;;;;;;;18.30;11.55;;;;;;;22.47;89.94;101096.75;6246772;28;20049;-77
2021/06/18 07:30:36;;;;;;;22.10;13.65;;;;;;;22.48;90.49;101102.94;6247463;28;20065;-79
2021/06/18 07:33:38;;;;;;;23.13;13.25;;;;;;;22.50;91.20;101103.66;6247989;28;20045;-75
2021/06/18 07:36:41;;;;;;;20.15;12.10;;;;;;;22.52;88.25;101097.13;6247607;28;20042;-75
2021/06/18 07:39:42;;;;;;;14.60;9.18;;;;;;;22.90;87.12;101097.91;6247600;28;20052;-75
2021/06/18 07:42:45;;;;;;;21.48;13.15;;;;;;;23.08;84.64;101102.41;6247702;28;20080;-76
2021/06/18 07:45:46;;;;;;;20.25;11.07;;;;;;;23.03;86.60;101094.84;6246974;28;20136;-75
2021/06/18 07:48:47;;;;;;;18.50;12.85;;;;;;;23.41;83.25;101084.75;6247361;28;20420;-76
2021/06/18 07:51:50;;;;;;;22.80;11.85;;;;;;;23.10;83.93;101087.00;6247349;28;20053;-75
2021/06/18 07:54:55;;;;;;;27.35;11.10;;;;;;;23.17;86.19;101078.19;6246860;28;20409;-75
2021/06/18 07:57:56;;;;;;;20.17;12.68;;;;;;;23.13;84.85;101075.97;6247550;28;20052;-75
2021/06/18 08:00:58;;;;;;;20.30;10.57;;;;;;;23.09;85.11;101071.94;6247252;28;20056;-75
2021/06/18 08:03:59;;;;;;;19.92;10.70;;;;;;;23.28;83.38;101061.00;6246845;28;20049;-76
2021/06/18 08:07:01;;;;;;;19.13;11.43;;;;;;;23.29;83.35;101060.00;6245176;28;20045;-76
2021/06/18 08:10:04;;;;;;;19.55;10.23;;;;;;;23.29;84.53;101055.47;6246744;28;20049;-76
2021/06/18 08:13:05;;;;;;;19.65;10.27;;;;;;;23.36;85.50;101068.28;6246585;28;20416;-76
2021/06/18 08:16:07;;;;;;;15.30;9.75;;;;;;;23.37;84.94;101068.09;6246865;28;20045;-76
2021/06/18 08:19:08;;;;;;;16.63;9.98;;;;;;;23.47;84.11;101063.47;6245475;28;20042;-76
2021/06/18 08:22:11;;;;;;;17.65;10.50;;;;;;;23.55;83.38;101062.69;6245864;28;20536;-81
2021/06/18 08:25:13;;;;;;;16.13;10.32;;;;;;;23.67;84.05;101063.31;6250212;28;20041;-81
2021/06/18 08:28:14;;;;;;;18.42;10.25;;;;;;;23.73;83.67;101063.50;6252205;28;20053;-81
2021/06/18 08:31:16;;;;;;;17.42;11.02;;;;;;;23.81;84.82;101053.81;6252237;28;20050;-81
2021/06/18 08:34:17;;;;;;;23.02;11.10;;;;;;;24.12;84.21;101054.09;6251338;28;20056;-76
2021/06/18 08:37:20;;;;;;;20.83;10.30;;;;;;;24.09;82.26;101049.06;6250001;28;20417;-75
2021/06/18 08:40:21;;;;;;;15.90;9.90;;;;;;;24.11;83.18;101050.56;6251039;28;20056;-76
2021/06/18 08:43:24;;;;;;;17.98;11.70;;;;;;;24.18;83.11;101059.66;6251236;28;20054;-76
2021/06/18 08:46:26;;;;;;;17.88;11.93;;;;;;;24.42;81.51;101052.72;6249572;28;20045;-77
2021/06/18 08:49:27;;;;;;;21.50;12.80;;;;;;;24.59;81.62;101048.22;6251429;28;20072;-77
2021/06/18 08:52:30;;;;;;;19.02;11.57;;;;;;;24.44;82.82;101048.03;6250854;28;20057;-75
2021/06/18 08:55:33;;;;;;;14.70;11.30;;;;;;;24.90;80.33;101054.63;6251141;28;20046;-76
2021/06/18 08:58:35;;;;;;;18.13;12.70;;;;;;;25.15;78.91;101060.03;6250618;28;20056;-77
2021/06/18 09:01:36;;;;;;;18.70;11.88;;;;;;;24.86;81.51;101061.34;6250359;28;20049;-76
2021/06/18 09:05:00;;;;;;;21.45;13.20;;;;;;;24.84;82.18;101057.97;6250446;28;20046;-76
2021/06/18 09:08:04;;;;;;;22.33;12.40;;;;;;;24.88;82.89;101050.41;6250984;28;20053;-76
2021/06/18 09:11:06;;;;;;;20.40;12.75;;;;;;;24.79;82.35;101052.25;6250598;28;20045;-75
2021/06/18 09:14:24;;;;;;;16.40;10.90;;;;;;;24.91;82.67;101045.53;6250757;28;21753;-76
2021/06/18 09:17:27;;;;;;;19.50;12.57;;;;;;;25.09;81.47;101034.66;6250821;28;20497;-76
2021/06/18 09:20:29;;;;;;;24.58;12.85;;;;;;;25.21;80.04;101038.69;6250778;28;20073;-76
2021/06/18 09:23:33;;;;;;;23.00;12.70;;;;;;;25.06;79.82;101046.53;6250257;28;20049;-75
2021/06/18 09:26:38;;;;;;;17.52;10.80;;;;;;;25.26;80.09;101040.88;6250081;28;20473;-76
2021/06/18 09:29:41;;;;;;;18.88;11.10;;;;;;;25.57;77.87;101043.63;6249382;28;20128;-76
2021/06/18 09:32:57;;;;;;;17.88;12.68;;;;;;;25.53;75.68;101040.47;6248060;28;20048;-76
2021/06/18 09:36:03;;;;;;;19.90;11.15;;;;;;;25.51;76.77;101039.78;6293383;23;20135;-77
2021/06/18 09:39:09;;;;;;;16.70;11.63;;;;;;;25.51;77.18;101041.63;6302563;28;20055;-78
2021/06/18 09:42:12;;;;;;;18.42;11.50;;;;;;;25.66;75.71;101041.75;6278172;28;20600;-77
2021/06/18 09:45:15;;;;;;;17.23;12.20;;;;;;;25.75;75.25;101043.41;6274725;28;20055;-75
2021/06/18 09:48:20;;;;;;;21.02;11.60;;;;;;;25.74;73.35;101044.44;6275046;28;20056;-76
2021/06/18 09:51:22;;;;;;;16.17;9.63;;;;;;;25.86;72.89;101043.06;6275108;28;20094;-75
2021/06/18 09:54:31;;;;;;;15.63;7.63;;;;;;;26.01;71.31;101051.25;6274636;28;20051;-75
2021/06/18 09:57:39;;;;;;;15.65;8.75;;;;;;;26.13;70.53;101049.84;6274656;28;20083;-76
2021/06/18 10:00:40;;;;;;;14.57;7.75;;;;;;;26.22;70.84;101048.81;6274278;28;20130;-76
2021/06/18 10:04:00;;;;;;;13.45;9.45;;;;;;;26.33;72.44;101050.25;6274091;28;20044;-76
2021/06/18 10:07:01;;;;;;;15.40;10.02;;;;;;;26.57;72.02;101054.66;6274014;28;20044;-76
2021/06/18 10:10:07;;;;;;;16.95;8.80;;;;;;;26.52;73.94;101051.69;6273827;28;20080;-76
2021/06/18 10:13:09;;;;;;;14.50;9.85;;;;;;;26.39;75.12;101040.59;6274076;28;20045;-76
2021/06/18 10:16:13;;;;;;;20.42;10.13;;;;;;;26.64;74.40;101041.31;6273798;28;20053;-76
2021/06/18 10:19:17;;;;;;;16.13;10.10;;;;;;;26.45;75.47;101045.34;6273782;28;20056;-76
2021/06/18 10:22:20;;;;;;;20.73;10.93;;;;;;;26.64;75.08;101044.84;6273559;28;20045;-76
2021/06/18 10:25:28;;;;;;;15.40;9.48;;;;;;;26.77;74.61;101037.00;6273350;28;20408;-76
2021/06/18 10:28:32;;;;;;;16.65;9.65;;;;;;;26.83;75.34;101048.94;6273266;28;20057;-76
2021/06/18 10:31:36;;;;;;;19.13;10.43;;;;;;;26.99;71.60;101050.66;6273526;28;20657;-76
2021/06/18 10:34:39;;;;;;;19.55;9.45;;;;;;;26.82;74.64;101055.34;6272885;28;20504;-76
2021/06/18 10:37:48;;;;;;;14.55;8.93;;;;;;;26.97;72.84;101060.78;6273480;28;20049;-77
2021/06/18 10:40:52;;;;;;;15.73;9.07;;;;;;;26.93;73.15;101065.69;6273242;28;20135;-76
2021/06/18 10:43:56;;;;;;;13.35;8.70;;;;;;;27.01;72.26;101056.72;6272937;28;20455;-76
2021/06/18 10:46:57;;;;;;;20.13;9.23;;;;;;;27.14;71.34;101062.34;6272272;28;20416;-77
2021/06/18 10:50:00;;;;;;;16.85;10.57;;;;;;;27.25;70.63;101050.25;6272807;28;20049;-76
2021/06/18 10:53:18;;;;;;;17.40;9.95;;;;;;;27.40;70.03;101045.75;6272808;28;20049;-76
2021/06/18 10:56:21;;;;;;;16.58;9.93;;;;;;;27.60;68.25;101045.19;6272223;28;20045;-75
2021/06/18 10:59:35;;;;;;;22.30;10.45;;;;;;;27.66;67.14;101030.94;6272462;28;20043;-75
2021/06/18 11:02:40;;;;;;;14.43;9.23;;;;;;;27.57;69.62;101041.03;6270752;28;20041;-75
2021/06/18 11:05:43;;;;;;;17.20;9.38;;;;;;;27.61;68.66;101033.38;6271229;28;20067;-75
2021/06/18 11:08:47;;;;;;;18.75;10.48;;;;;;;27.67;69.20;101030.78;6271433;28;20056;-76
2021/06/18 11:11:49;;;;;;;20.05;9.40;;;;;;;27.84;69.15;101027.88;6270598;28;20126;-76
2021/06/18 11:14:51;;;;;;;16.30;8.93;;;;;;;27.94;68.90;101017.66;6271227;28;20052;-76
2021/06/18 11:18:01;;;;;;;17.90;10.65;;;;;;;28.08;68.00;101022.19;6272613;28;20061;-76
2021/06/18 11:21:08;;;;;;;19.38;9.38;;;;;;;28.36;65.63;101014.22;6271549;28;20053;-75
2021/06/18 11:24:09;;;;;;;13.13;9.20;;;;;;;28.52;67.79;101010.41;6272074;28;20571;-76
2021/06/18 11:27:26;;;;;;;14.52;9.73;;;;;;;28.70;65.17;101004.53;6272060;28;20045;-76
2021/06/18 11:30:28;;;;;;;17.30;8.85;;;;;;;28.83;66.33;101007.34;6272145;28;20049;-76
2021/06/18 11:33:56;;;;;;;19.52;10.02;;;;;;;29.29;62.90;101018.56;6271762;28;20041;-74
2021/06/18 11:36:58;;;;;;;13.88;9.15;;;;;;;29.20;64.32;101017.03;6247201;28;20056;-75
2021/06/18 11:40:07;;;;;;;15.95;9.80;;;;;;;29.49;63.04;101016.00;6247180;28;20497;-76
2021/06/18 11:43:09;;;;;;;13.73;7.55;;;;;;;29.65;63.54;101014.84;6247013;28;20052;-76
2021/06/18 11:46:11;;;;;;;16.88;9.43;;;;;;;29.99;60.17;101016.69;6246908;28;20436;-77
2021/06/18 11:49:15;;;;;;;19.30;9.20;;;;;;;30.08;61.01;101009.22;6247052;28;20132;-76
2021/06/18 11:52:17;;;;;;;16.30;8.25;;;;;;;30.09;60.20;101008.16;6246846;28;20523;-77
2021/06/18 11:55:28;;;;;;;10.40;7.93;;;;;;;30.26;60.40;101005.97;6246770;28;20052;-78
2021/06/18 11:58:31;;;;;;;18.27;9.35;;;;;;;30.17;59.17;100999.06;6246786;28;20516;-76
2021/06/18 12:01:34;;;;;;;12.15;7.93;;;;;;;30.23;59.96;101001.78;6246930;28;20111;-77
2021/06/18 12:04:35;;;;;;;16.40;8.32;;;;;;;29.89;62.15;100999.97;6246509;28;20050;-77
2021/06/18 12:07:38;;;;;;;15.10;8.23;;;;;;;29.96;60.53;100998.09;6246876;28;20041;-76
2021/06/18 12:10:39;;;;;;;13.88;8.68;;;;;;;29.75;61.84;100998.22;6246976;28;20088;-77
2021/06/18 12:13:51;;;;;;;15.27;9.52;;;;;;;29.62;61.21;100995.47;6246790;28;20049;-77
2021/06/18 12:16:53;;;;;;;14.15;8.95;;;;;;;29.65;61.79;100995.06;6246571;28;20156;-77
2021/06/18 12:19:54;;;;;;;15.65;8.45;;;;;;;29.71;62.73;100991.56;6246979;28;20428;-78
2021/06/18 12:22:55;;;;;;;13.95;8.48;;;;;;;29.93;61.63;100987.69;6246765;28;20053;-76
2021/06/18 12:25:57;;;;;;;11.48;8.48;;;;;;;30.21;61.68;100992.19;6246247;28;20532;-77
2021/06/18 12:29:01;;;;;;;13.63;7.78;;;;;;;30.65;61.17;100988.06;6246759;28;20049;-77
2021/06/18 12:32:03;;;;;;;17.38;9.02;;;;;;;30.77;57.08;100984.56;6246231;28;20444;-78
2021/06/18 12:35:07;;;;;;;16.70;8.50;;;;;;;30.85;59.81;100977.25;6246223;28;20060;-77
2021/06/18 12:38:09;;;;;;;14.40;8.35;;;;;;;31.28;59.55;100972.19;6246600;28;20053;-77
2021/06/18 12:41:23;;;;;;;11.85;8.60;;;;;;;31.19;56.98;100955.25;6246556;28;20056;-77
2021/06/18 12:44:36;;;;;;;15.93;8.82;;;;;;;31.33;57.48;100956.91;6245951;28;20054;-78
2021/06/18 12:47:38;;;;;;;10.18;7.70;;;;;;;31.69;55.56;100963.69;6246762;28;20053;-78
2021/06/18 12:50:42;;;;;;;15.65;8.32;;;;;;;31.47;55.32;100963.16;6246410;28;20433;-77
2021/06/18 12:53:44;;;;;;;17.48;7.82;;;;;;;31.56;55.11;100964.56;6259524;28;20077;-77
2021/06/18 12:56:46;;;;;;;9.35;7.18;;;;;;;31.82;55.64;100960.94;6270571;28;20040;-77
2021/06/18 12:59:49;;;;;;;26.52;8.38;;;;;;;31.80;56.79;100957.59;6271039;28;20056;-77
2021/06/18 13:02:57;;;;;;;13.25;7.10;;;;;;;31.90;54.38;100949.00;6270589;28;20057;-77
2021/06/18 13:05:59;;;;;;;15.05;8.40;;;;;;;32.15;52.25;100969.97;6271114;28;20055;-77
2021/06/18 13:09:01;;;;;;;14.95;8.05;;;;;;;31.90;54.13;100964.47;6270592;28;20053;-77
2021/06/18 13:12:04;;;;;;;16.27;7.82;;;;;;;31.82;55.74;100963.66;6274925;28;20141;-77
2021/06/18 13:15:08;;;;;;;13.00;7.75;;;;;;;31.82;52.82;100965.53;6274794;28;20056;-78
2021/06/18 13:18:10;;;;;;;8.00;6.70;;;;;;;32.23;52.64;100967.81;6275440;28;20553;-77
2021/06/18 13:21:11;;;;;;;9.32;6.60;;;;;;;32.05;53.79;100967.72;6275088;28;20060;-76
2021/06/18 13:24:14;;;;;;;11.50;6.95;;;;;;;32.01;52.73;100958.34;6275241;28;20056;-77
2021/06/18 13:27:17;;;;;;;12.70;7.22;;;;;;;31.99;56.85;100958.56;6275009;28;20045;-77
2021/06/18 13:30:20;;;;;;;11.43;6.55;;;;;;;32.20;54.45;100953.81;6274745;28;20075;-77
2021/06/18 13:33:23;;;;;;;10.80;7.22;;;;;;;32.36;54.18;100953.31;6274863;28;20045;-77
2021/06/18 13:36:26;;;;;;;11.23;7.38;;;;;;;32.54;51.36;100942.53;6274488;28;20045;-77
2021/06/18 13:39:35;;;;;;;10.00;6.68;;;;;;;32.55;51.67;100936.03;6274806;28;20052;-77
2021/06/18 13:42:36;;;;;;;;;;;;;;;32.24;50.82;100938.75;6274953;28;20072;-77
2021/06/18 13:45:39;;;;;;;12.43;7.63;;;;;;;32.26;52.07;100937.47;6274536;28;19928;-77
2021/06/18 13:48:40;;;;;;;10.70;7.40;;;;;;;32.28;51.78;100938.06;6274226;28;20408;-77
2021/06/18 13:51:42;;;;;;;12.57;7.43;;;;;;;32.21;52.52;100945.47;6274555;28;20049;-77
2021/06/18 13:54:44;;;;;;;10.13;7.45;;;;;;;32.35;52.51;100937.22;6274063;28;20230;-77
2021/06/18 13:57:45;;;;;;;14.18;7.57;;;;;;;32.05;50.80;100943.25;6274382;28;20048;-75
2021/06/18 14:00:48;;;;;;;15.07;6.95;;;;;;;31.64;53.90;100940.94;6274002;28;20140;-77